AEE3JT LGSR-LGAV
Flight info
| Callsign | AEE3JT |
|---|---|
| Flight time | 0h 28m |
| Altitude | 16000 |
| Route | NETIS M601 MIL L617 SOREV |
| Aircraft | A320/M-SDE3FGHIRWY/LB1 |
Departure
| Time | 2026-04-21 15:30 |
|---|---|
| Airport | Santorini International Airport (LGSR) |
Arrival
| Time | 2026-04-21 15:59 |
|---|---|
| Airport | Athens Eleftherios Venizelos International Airport (LGAV) |
| Time | Latitude | Longitude | Altitude | Speed | Heading |
|---|---|---|---|---|---|
| 2026-04-21 15:15 | 36.40420 | 25.47344 | 90 ft | 0 kts | 249° |
| 2026-04-21 15:22 | 36.40425 | 25.47360 | 92 ft | 4 kts | 249° |
| 2026-04-21 15:22 | 36.40432 | 25.47385 | 91 ft | 4 kts | 272° |
| 2026-04-21 15:22 | 36.40421 | 25.47409 | 91 ft | 4 kts | 336° |
| 2026-04-21 15:23 | 36.40397 | 25.47420 | 90 ft | 4 kts | 339° |
| 2026-04-21 15:23 | 36.40374 | 25.47432 | 90 ft | 2 kts | 339° |
| 2026-04-21 15:23 | 36.40372 | 25.47432 | 90 ft | 3 kts | 339° |
| 2026-04-21 15:25 | 36.40380 | 25.47429 | 90 ft | 2 kts | 339° |
| 2026-04-21 15:25 | 36.40398 | 25.47428 | 90 ft | 3 kts | 11° |
| 2026-04-21 15:25 | 36.40416 | 25.47456 | 89 ft | 5 kts | 62° |
| 2026-04-21 15:26 | 36.40410 | 25.47504 | 94 ft | 7 kts | 131° |
| 2026-04-21 15:26 | 36.40359 | 25.47538 | 90 ft | 10 kts | 159° |
| 2026-04-21 15:26 | 36.40286 | 25.47573 | 90 ft | 13 kts | 158° |
| 2026-04-21 15:26 | 36.40192 | 25.47617 | 88 ft | 16 kts | 161° |
| 2026-04-21 15:27 | 36.40080 | 25.47671 | 90 ft | 19 kts | 159° |
| 2026-04-21 15:27 | 36.39946 | 25.47733 | 86 ft | 22 kts | 159° |
| 2026-04-21 15:27 | 36.39793 | 25.47805 | 85 ft | 25 kts | 160° |
| 2026-04-21 15:27 | 36.39618 | 25.47888 | 75 ft | 29 kts | 159° |
| 2026-04-21 15:28 | 36.39428 | 25.47979 | 70 ft | 27 kts | 159° |
| 2026-04-21 15:28 | 36.39244 | 25.48066 | 58 ft | 29 kts | 159° |
| 2026-04-21 15:28 | 36.39088 | 25.48140 | 57 ft | 16 kts | 159° |
| 2026-04-21 15:28 | 36.39009 | 25.48201 | 52 ft | 12 kts | 110° |
| 2026-04-21 15:29 | 36.39026 | 25.48298 | 55 ft | 7 kts | 69° |
| 2026-04-21 15:29 | 36.39063 | 25.48320 | 53 ft | 6 kts | 351° |
| 2026-04-21 15:29 | 36.39077 | 25.48313 | 53 ft | 0 kts | 339° |
| 2026-04-21 15:30 | 36.39158 | 25.48275 | 59 ft | 44 kts | 339° |
| 2026-04-21 15:30 | 36.39680 | 25.48028 | 70 ft | 112 kts | 340° |
| 2026-04-21 15:30 | 36.40576 | 25.47614 | 163 ft | 156 kts | 337° |
| 2026-04-21 15:30 | 36.41614 | 25.47198 | 804 ft | 158 kts | 338° |
| 2026-04-21 15:31 | 36.42672 | 25.46825 | 1478 ft | 160 kts | 339° |
| 2026-04-21 15:31 | 36.43821 | 25.46407 | 1725 ft | 182 kts | 338° |
| 2026-04-21 15:31 | 36.44924 | 25.45601 | 2061 ft | 191 kts | 310° |
| 2026-04-21 15:31 | 36.45730 | 25.44232 | 2354 ft | 209 kts | 300° |
| 2026-04-21 15:32 | 36.46549 | 25.42632 | 2675 ft | 232 kts | 300° |
| 2026-04-21 15:32 | 36.47469 | 25.40847 | 3168 ft | 258 kts | 301° |
| 2026-04-21 15:32 | 36.48483 | 25.38885 | 3660 ft | 282 kts | 301° |
| 2026-04-21 15:32 | 36.49589 | 25.36743 | 4060 ft | 306 kts | 301° |
| 2026-04-21 15:33 | 36.50785 | 25.34426 | 4364 ft | 330 kts | 301° |
| 2026-04-21 15:33 | 36.52057 | 25.31961 | 4843 ft | 345 kts | 301° |
| 2026-04-21 15:33 | 36.53365 | 25.29427 | 5556 ft | 350 kts | 301° |
| 2026-04-21 15:33 | 36.54685 | 25.26868 | 6356 ft | 353 kts | 302° |
| 2026-04-21 15:34 | 36.56015 | 25.24281 | 7081 ft | 357 kts | 302° |
| 2026-04-21 15:34 | 36.57335 | 25.21706 | 7822 ft | 360 kts | 302° |
| 2026-04-21 15:34 | 36.58687 | 25.19070 | 8578 ft | 363 kts | 302° |
| 2026-04-21 15:34 | 36.60143 | 25.16500 | 9322 ft | 366 kts | 308° |
| 2026-04-21 15:35 | 36.61764 | 25.14042 | 10052 ft | 368 kts | 309° |
| 2026-04-21 15:35 | 36.63418 | 25.11589 | 10713 ft | 371 kts | 309° |
| 2026-04-21 15:35 | 36.65089 | 25.09135 | 11362 ft | 374 kts | 309° |
| 2026-04-21 15:36 | 36.66282 | 25.07375 | 11822 ft | 376 kts | 309° |
| 2026-04-21 15:36 | 36.67951 | 25.04913 | 12470 ft | 379 kts | 309° |
| 2026-04-21 15:36 | 36.69658 | 25.02396 | 13118 ft | 381 kts | 309° |
| 2026-04-21 15:36 | 36.71379 | 24.99859 | 13752 ft | 385 kts | 309° |
| 2026-04-21 15:37 | 36.73107 | 24.97303 | 14308 ft | 387 kts | 309° |
| 2026-04-21 15:37 | 36.74846 | 24.94721 | 14880 ft | 390 kts | 309° |
| 2026-04-21 15:37 | 36.76589 | 24.92124 | 15450 ft | 392 kts | 309° |
| 2026-04-21 15:37 | 36.78340 | 24.89510 | 15847 ft | 393 kts | 309° |
| 2026-04-21 15:38 | 36.80092 | 24.86894 | 15952 ft | 393 kts | 309° |
| 2026-04-21 15:38 | 36.81845 | 24.84279 | 15968 ft | 392 kts | 309° |
| 2026-04-21 15:38 | 36.83596 | 24.81666 | 15970 ft | 392 kts | 309° |
| 2026-04-21 15:38 | 36.85346 | 24.79052 | 15967 ft | 392 kts | 308° |
| 2026-04-21 15:39 | 36.87071 | 24.76472 | 15964 ft | 392 kts | 308° |
| 2026-04-21 15:39 | 36.88816 | 24.73857 | 15963 ft | 392 kts | 308° |
| 2026-04-21 15:39 | 36.90567 | 24.71234 | 15963 ft | 393 kts | 308° |
| 2026-04-21 15:39 | 36.92316 | 24.68615 | 15959 ft | 393 kts | 308° |
| 2026-04-21 15:40 | 36.94061 | 24.65997 | 15958 ft | 392 kts | 308° |
| 2026-04-21 15:40 | 36.95807 | 24.63374 | 15960 ft | 392 kts | 308° |
| 2026-04-21 15:40 | 36.97555 | 24.60749 | 15954 ft | 392 kts | 308° |
| 2026-04-21 15:40 | 36.99301 | 24.58125 | 15954 ft | 392 kts | 308° |
| 2026-04-21 15:41 | 37.01045 | 24.55503 | 15952 ft | 392 kts | 308° |
| 2026-04-21 15:41 | 37.02787 | 24.52880 | 15951 ft | 392 kts | 308° |
| 2026-04-21 15:41 | 37.04504 | 24.50289 | 15955 ft | 392 kts | 308° |
| 2026-04-21 15:41 | 37.06246 | 24.47657 | 15948 ft | 392 kts | 308° |
| 2026-04-21 15:42 | 37.08102 | 24.45151 | 15828 ft | 394 kts | 316° |
| 2026-04-21 15:42 | 37.10316 | 24.43134 | 15588 ft | 395 kts | 328° |
| 2026-04-21 15:42 | 37.12823 | 24.41706 | 15345 ft | 398 kts | 339° |
| 2026-04-21 15:42 | 37.15520 | 24.40863 | 15100 ft | 400 kts | 345° |
| 2026-04-21 15:43 | 37.18235 | 24.40138 | 14860 ft | 399 kts | 345° |
| 2026-04-21 15:43 | 37.20945 | 24.39403 | 14615 ft | 398 kts | 345° |
| 2026-04-21 15:43 | 37.23645 | 24.38665 | 14377 ft | 397 kts | 345° |
| 2026-04-21 15:43 | 37.26301 | 24.37937 | 14145 ft | 396 kts | 345° |
| 2026-04-21 15:44 | 37.28987 | 24.37201 | 13910 ft | 395 kts | 345° |
| 2026-04-21 15:44 | 37.31666 | 24.36469 | 13670 ft | 394 kts | 345° |
| 2026-04-21 15:44 | 37.34342 | 24.35736 | 13403 ft | 392 kts | 345° |
| 2026-04-21 15:44 | 37.37000 | 24.35010 | 13140 ft | 391 kts | 345° |
| 2026-04-21 15:45 | 37.39656 | 24.34284 | 12878 ft | 389 kts | 345° |
| 2026-04-21 15:45 | 37.42297 | 24.33559 | 12613 ft | 388 kts | 345° |
| 2026-04-21 15:45 | 37.44928 | 24.32834 | 12354 ft | 386 kts | 345° |
| 2026-04-21 15:45 | 37.47514 | 24.32124 | 12118 ft | 385 kts | 345° |
| 2026-04-21 15:46 | 37.50122 | 24.31412 | 11862 ft | 383 kts | 345° |
| 2026-04-21 15:46 | 37.52721 | 24.30701 | 11609 ft | 381 kts | 345° |
| 2026-04-21 15:46 | 37.55313 | 24.29999 | 11365 ft | 380 kts | 347° |
| 2026-04-21 15:46 | 37.57908 | 24.29629 | 11115 ft | 381 kts | 352° |
| 2026-04-21 15:47 | 37.60529 | 24.29250 | 10869 ft | 378 kts | 348° |
| 2026-04-21 15:47 | 37.63126 | 24.28704 | 10619 ft | 377 kts | 347° |
| 2026-04-21 15:47 | 37.65701 | 24.28110 | 10385 ft | 376 kts | 347° |
| 2026-04-21 15:47 | 37.68224 | 24.27504 | 10145 ft | 362 kts | 346° |
| 2026-04-21 15:48 | 37.70648 | 24.26915 | 9909 ft | 347 kts | 346° |
| 2026-04-21 15:48 | 37.72947 | 24.26362 | 9670 ft | 335 kts | 346° |
| 2026-04-21 15:48 | 37.75196 | 24.25825 | 9404 ft | 321 kts | 346° |
| 2026-04-21 15:48 | 37.77303 | 24.25326 | 9146 ft | 300 kts | 346° |
| 2026-04-21 15:49 | 37.79292 | 24.24859 | 8888 ft | 283 kts | 346° |
| 2026-04-21 15:49 | 37.81194 | 24.24412 | 8635 ft | 278 kts | 346° |
| 2026-04-21 15:49 | 37.83086 | 24.23961 | 8384 ft | 277 kts | 346° |
| 2026-04-21 15:49 | 37.84977 | 24.23509 | 8129 ft | 276 kts | 346° |
| 2026-04-21 15:50 | 37.86863 | 24.23061 | 7888 ft | 276 kts | 346° |
| 2026-04-21 15:50 | 37.88742 | 24.22616 | 7629 ft | 273 kts | 346° |
| 2026-04-21 15:50 | 37.90582 | 24.22181 | 7384 ft | 272 kts | 346° |
| 2026-04-21 15:50 | 37.92440 | 24.21741 | 7146 ft | 272 kts | 346° |
| 2026-04-21 15:51 | 37.94295 | 24.21302 | 6913 ft | 271 kts | 346° |
| 2026-04-21 15:51 | 37.96148 | 24.20867 | 6661 ft | 270 kts | 346° |
| 2026-04-21 15:51 | 37.97993 | 24.20435 | 6418 ft | 270 kts | 346° |
| 2026-04-21 15:51 | 37.99834 | 24.20002 | 6175 ft | 268 kts | 346° |
| 2026-04-21 15:52 | 38.01670 | 24.19568 | 5914 ft | 268 kts | 346° |
| 2026-04-21 15:52 | 38.03470 | 24.19143 | 5613 ft | 267 kts | 346° |
| 2026-04-21 15:52 | 38.05289 | 24.18711 | 5371 ft | 262 kts | 346° |
| 2026-04-21 15:52 | 38.07051 | 24.18286 | 5249 ft | 253 kts | 343° |
| 2026-04-21 15:53 | 38.08599 | 24.17410 | 5125 ft | 238 kts | 319° |
| 2026-04-21 15:53 | 38.09641 | 24.15881 | 4999 ft | 224 kts | 296° |
| 2026-04-21 15:53 | 38.10084 | 24.14056 | 4877 ft | 213 kts | 275° |
| 2026-04-21 15:53 | 38.10216 | 24.12215 | 4670 ft | 208 kts | 275° |
| 2026-04-21 15:54 | 38.10276 | 24.10397 | 4375 ft | 206 kts | 261° |
| 2026-04-21 15:54 | 38.09704 | 24.08734 | 3984 ft | 211 kts | 230° |
| 2026-04-21 15:54 | 38.08576 | 24.07539 | 3685 ft | 212 kts | 218° |
| 2026-04-21 15:54 | 38.07413 | 24.06439 | 3403 ft | 210 kts | 218° |
| 2026-04-21 15:55 | 38.06268 | 24.05350 | 3132 ft | 201 kts | 218° |
| 2026-04-21 15:55 | 38.05179 | 24.04311 | 2898 ft | 191 kts | 218° |
| 2026-04-21 15:55 | 38.04142 | 24.03319 | 2635 ft | 180 kts | 218° |
| 2026-04-21 15:55 | 38.03192 | 24.02413 | 2412 ft | 161 kts | 217° |
| 2026-04-21 15:56 | 38.02349 | 24.01607 | 2209 ft | 145 kts | 217° |
| 2026-04-21 15:56 | 38.01561 | 24.00854 | 2015 ft | 139 kts | 217° |
| 2026-04-21 15:56 | 38.00798 | 24.00126 | 1827 ft | 137 kts | 217° |
| 2026-04-21 15:56 | 38.00042 | 23.99405 | 1657 ft | 137 kts | 216° |
| 2026-04-21 15:57 | 37.99292 | 23.98690 | 1479 ft | 135 kts | 215° |
| 2026-04-21 15:57 | 37.98535 | 23.97970 | 1291 ft | 136 kts | 215° |
| 2026-04-21 15:57 | 37.97787 | 23.97260 | 1083 ft | 136 kts | 218° |
| 2026-04-21 15:57 | 37.97029 | 23.96536 | 905 ft | 137 kts | 217° |
| 2026-04-21 15:58 | 37.96274 | 23.95814 | 767 ft | 137 kts | 216° |
| 2026-04-21 15:58 | 37.95514 | 23.95092 | 547 ft | 139 kts | 218° |
| 2026-04-21 15:58 | 37.94753 | 23.94365 | 374 ft | 135 kts | 218° |
| 2026-04-21 15:58 | 37.94037 | 23.93682 | 297 ft | 111 kts | 217° |
| 2026-04-21 15:59 | 37.93554 | 23.93227 | 295 ft | 62 kts | 216° |
| 2026-04-21 15:59 | 37.93273 | 23.92962 | 292 ft | 41 kts | 217° |
| 2026-04-21 15:59 | 37.93063 | 23.92832 | 291 ft | 29 kts | 186° |
| 2026-04-21 15:59 | 37.92939 | 23.92852 | 300 ft | 14 kts | 130° |
| 2026-04-21 16:00 | 37.92975 | 23.92955 | 299 ft | 15 kts | 40° |
| 2026-04-21 16:00 | 37.93066 | 23.93041 | 301 ft | 17 kts | 36° |
| 2026-04-21 16:00 | 37.93168 | 23.93139 | 298 ft | 20 kts | 37° |
| 2026-04-21 16:00 | 37.93282 | 23.93249 | 300 ft | 21 kts | 36° |
| 2026-04-21 16:01 | 37.93407 | 23.93367 | 300 ft | 24 kts | 37° |
| 2026-04-21 16:01 | 37.93545 | 23.93498 | 299 ft | 26 kts | 37° |
| 2026-04-21 16:01 | 37.93694 | 23.93638 | 299 ft | 28 kts | 36° |
| 2026-04-21 16:01 | 37.93857 | 23.93792 | 300 ft | 30 kts | 37° |
| 2026-04-21 16:02 | 37.94027 | 23.93952 | 302 ft | 29 kts | 37° |
| 2026-04-21 16:02 | 37.94193 | 23.94111 | 301 ft | 29 kts | 37° |
| 2026-04-21 16:02 | 37.94361 | 23.94269 | 302 ft | 31 kts | 37° |
| 2026-04-21 16:02 | 37.94534 | 23.94435 | 302 ft | 31 kts | 37° |
| 2026-04-21 16:03 | 37.94666 | 23.94559 | 303 ft | 19 kts | 38° |
| 2026-04-21 16:03 | 37.94653 | 23.94680 | 302 ft | 16 kts | 128° |
| 2026-04-21 16:03 | 37.94583 | 23.94796 | 302 ft | 17 kts | 127° |
| 2026-04-21 16:03 | 37.94508 | 23.94922 | 302 ft | 18 kts | 127° |
| 2026-04-21 16:04 | 37.94429 | 23.95055 | 301 ft | 20 kts | 127° |
| 2026-04-21 16:04 | 37.94345 | 23.95197 | 301 ft | 21 kts | 127° |
| 2026-04-21 16:04 | 37.94258 | 23.95344 | 301 ft | 20 kts | 126° |
| 2026-04-21 16:04 | 37.94192 | 23.95438 | 300 ft | 6 kts | 161° |
| 2026-04-21 16:05 | 37.94152 | 23.95412 | 302 ft | 7 kts | 217° |
| 2026-04-21 16:05 | 37.94117 | 23.95378 | 303 ft | 0 kts | 217° |